Hillpoint, Wisconsin
Current Conditions -  °F | °C
As of 12:56 PM on Monday 20 Oct 2014 (Local Time) from KLNR Reporting Station
Light Rain Light Rain  
Wind Chill: 66°   Ceiling: Unl
Heat Index: 66°   Visibility: 10mi
Dew Point: 42°   Wind: 17mph
Humidity: 42%   Direction: 340°NNW
Pressure: 29.9"   Gusts: 23mph
Location:  43.39°N, 90.14°W
Report Text: KLNR 201756Z AUTO 34015G20KT 10SM -RA SCT046 19/06 A2990 RMK AO2 RAB26 SLP121 P0000 60000 T01890056 10189 20111 58007
Loading
Personal Weather Stations






























Interactive Weather Map
Tropical Storm Tracking
New forecast layout! Learn more

10-Day Weather Forecast

Advertisements
Track Severe Weather on mobile